createdAt,value
2024-02-26T00:02:00.176Z,55.07
2024-02-26T00:04:26.892Z,56.63
2024-02-26T00:06:55.601Z,58.20
2024-02-26T00:09:22.606Z,57.02
2024-02-26T00:11:49.458Z,55.93
2024-02-26T00:14:16.669Z,56.72
2024-02-26T00:16:43.933Z,55.87
2024-02-26T00:19:10.889Z,55.63
2024-02-26T00:21:43.463Z,55.26
2024-02-26T00:24:10.205Z,56.38
2024-02-26T00:26:37.373Z,57.16
2024-02-26T00:29:04.512Z,57.95
2024-02-26T00:31:31.541Z,57.63
2024-02-26T00:33:58.637Z,57.60
2024-02-26T00:36:25.542Z,57.82
2024-02-26T00:38:52.459Z,57.50
2024-02-26T00:41:20.046Z,57.13
2024-02-26T00:43:47.613Z,57.77
2024-02-26T00:46:14.433Z,57.26
2024-02-26T00:48:41.221Z,58.09
2024-02-26T00:51:08.930Z,58.05
2024-02-26T00:53:35.861Z,56.11
2024-02-26T00:56:02.797Z,57.62
2024-02-26T00:58:29.580Z,57.11
2024-02-26T01:00:56.563Z,56.41
2024-02-26T01:03:23.688Z,56.63
2024-02-26T01:05:50.627Z,57.34
2024-02-26T01:08:17.777Z,56.13
2024-02-26T01:10:44.516Z,57.58
2024-02-26T01:13:12.721Z,56.98
2024-02-26T01:15:39.440Z,56.98
2024-02-26T01:18:06.164Z,55.94
2024-02-26T01:20:33.000Z,56.62
2024-02-26T01:22:59.721Z,57.83
2024-02-26T01:25:26.472Z,57.59
2024-02-26T01:27:53.227Z,59.75
2024-02-26T01:30:20.207Z,56.15
2024-02-26T01:32:47.216Z,57.67
2024-02-26T01:35:13.946Z,56.82
2024-02-26T01:37:41.408Z,59.07
2024-02-26T01:40:08.774Z,56.79
2024-02-26T01:42:35.642Z,56.41
2024-02-26T01:45:02.799Z,57.61
2024-02-26T01:47:31.497Z,56.83
2024-02-26T01:49:58.797Z,56.99
2024-02-26T01:52:25.639Z,56.86
2024-02-26T01:54:52.470Z,56.47
2024-02-26T01:57:19.562Z,57.23
2024-02-26T01:59:46.616Z,58.23
2024-02-26T02:02:16.072Z,59.27
2024-02-26T02:04:43.035Z,58.60
2024-02-26T02:07:10.090Z,59.18
2024-02-26T02:09:37.427Z,60.87
2024-02-26T02:12:04.625Z,58.87
2024-02-26T02:14:33.410Z,59.69
2024-02-26T02:17:00.219Z,62.55
2024-02-26T02:19:27.195Z,62.41
2024-02-26T02:21:54.106Z,63.15
2024-02-26T02:24:21.146Z,64.26
2024-02-26T02:26:48.063Z,65.02
2024-02-26T02:29:15.986Z,66.76
2024-02-26T02:31:43.263Z,67.40
2024-02-26T02:34:10.864Z,67.97
2024-02-26T02:36:50.094Z,68.12
2024-02-26T02:39:16.984Z,68.53
2024-02-26T02:41:43.890Z,69.46
2024-02-26T02:44:10.802Z,70.64
2024-02-26T02:46:38.348Z,69.83
2024-02-26T02:49:05.295Z,71.59
2024-02-26T02:51:32.068Z,71.76
2024-02-26T02:53:58.725Z,71.51
2024-02-26T02:56:25.600Z,72.56
2024-02-26T02:58:52.576Z,72.12
2024-02-26T03:01:19.266Z,71.80
2024-02-26T03:03:46.333Z,72.14
2024-02-26T03:06:13.107Z,72.92
2024-02-26T03:08:40.754Z,74.57
2024-02-26T03:11:07.556Z,73.85
2024-02-26T03:13:34.382Z,74.52
2024-02-26T03:16:06.172Z,74.48
2024-02-26T03:18:33.291Z,74.64
2024-02-26T03:21:00.074Z,73.79
2024-02-26T03:23:26.804Z,73.93
2024-02-26T03:25:53.526Z,73.73
2024-02-26T03:28:20.326Z,74.93
2024-02-26T03:30:47.030Z,76.42
2024-02-26T03:33:13.957Z,77.55
2024-02-26T03:35:41.020Z,78.30
2024-02-26T03:38:07.821Z,78.10
2024-02-26T03:40:34.529Z,78.30
2024-02-26T03:43:01.445Z,79.32
2024-02-26T03:45:29.296Z,78.93
2024-02-26T03:47:56.357Z,78.07
2024-02-26T03:50:23.393Z,77.92
2024-02-26T03:52:50.085Z,78.23
2024-02-26T03:55:16.820Z,78.14
2024-02-26T03:57:44.834Z,78.39
2024-02-26T04:00:12.470Z,79.75
2024-02-26T04:02:39.600Z,78.66
2024-02-26T04:05:09.957Z,80.05
2024-02-26T04:07:36.869Z,80.10
2024-02-26T04:10:07.065Z,80.59
2024-02-26T04:12:33.937Z,80.42
2024-02-26T04:15:00.720Z,80.79
2024-02-26T04:17:27.855Z,82.08
2024-02-26T04:19:54.623Z,81.23
2024-02-26T04:22:21.365Z,81.05
2024-02-26T04:24:48.162Z,80.67
2024-02-26T04:27:15.211Z,80.81
2024-02-26T04:29:42.338Z,81.65
2024-02-26T04:32:09.091Z,81.52
2024-02-26T04:34:36.168Z,81.16
2024-02-26T04:37:04.397Z,81.73
2024-02-26T04:39:31.066Z,82.07
2024-02-26T04:41:57.836Z,81.89
2024-02-26T04:44:24.588Z,81.33
2024-02-26T04:46:51.248Z,81.44
2024-02-26T04:49:18.019Z,81.96
2024-02-26T04:51:44.823Z,81.59
2024-02-26T04:54:11.659Z,82.65
2024-02-26T04:56:38.566Z,83.62
2024-02-26T04:59:05.319Z,84.71
2024-02-26T05:01:32.273Z,84.33
2024-02-26T05:03:59.229Z,84.45
2024-02-26T05:06:26.154Z,83.58
2024-02-26T05:08:53.306Z,83.32
2024-02-26T05:11:20.218Z,83.89
2024-02-26T05:13:47.131Z,84.14
2024-02-26T05:16:14.949Z,84.59
2024-02-26T05:18:41.832Z,85.06
2024-02-26T05:21:08.904Z,85.46
2024-02-26T05:23:35.701Z,86.45
2024-02-26T05:26:02.394Z,85.47
2024-02-26T05:28:29.575Z,84.97
2024-02-26T05:30:56.327Z,85.51
2024-02-26T05:33:24.419Z,86.29
2024-02-26T05:35:51.334Z,87.32
2024-02-26T05:38:18.048Z,87.86
2024-02-26T05:40:45.586Z,87.49
2024-02-26T05:43:12.527Z,87.62
2024-02-26T05:45:39.342Z,87.54
2024-02-26T05:48:06.379Z,88.21
2024-02-26T05:50:33.516Z,88.40
2024-02-26T05:53:00.231Z,86.68
2024-02-26T05:55:27.163Z,87.03
2024-02-26T05:57:54.954Z,89.83
2024-02-26T06:00:22.050Z,88.40
2024-02-26T06:02:48.934Z,90.23
2024-02-26T06:05:15.888Z,89.85
2024-02-26T06:07:42.732Z,86.87
2024-02-26T06:10:10.057Z,86.99
2024-02-26T06:12:37.226Z,87.39
2024-02-26T06:15:05.550Z,89.03
2024-02-26T06:17:33.136Z,90.41
2024-02-26T06:20:02.632Z,90.73
2024-02-26T06:22:31.157Z,89.72
2024-02-26T06:24:57.902Z,88.65
2024-02-26T06:27:25.301Z,89.05
2024-02-26T06:29:53.371Z,87.99
2024-02-26T06:32:24.071Z,90.50
2024-02-26T06:34:50.819Z,91.86
2024-02-26T06:37:19.126Z,92.56
2024-02-26T06:39:46.179Z,92.60
2024-02-26T06:42:13.335Z,92.54
2024-02-26T06:44:40.207Z,92.50
2024-02-26T06:47:06.947Z,92.30
2024-02-26T06:49:33.728Z,92.53
2024-02-26T06:52:00.417Z,92.96
2024-02-26T06:54:27.221Z,91.95
2024-02-26T06:56:54.288Z,92.52
2024-02-26T06:59:21.448Z,93.26
2024-02-26T07:01:48.214Z,93.39
2024-02-26T07:04:15.074Z,92.47
2024-02-26T07:06:42.707Z,91.58
2024-02-26T07:09:09.694Z,91.50
2024-02-26T07:11:36.469Z,90.94
2024-02-26T07:14:03.443Z,90.22
2024-02-26T07:16:30.235Z,90.14
2024-02-26T07:18:57.343Z,89.95
2024-02-26T07:21:24.201Z,91.37
2024-02-26T07:23:51.096Z,90.58
2024-02-26T07:26:19.881Z,91.30
2024-02-26T07:28:46.758Z,90.70
2024-02-26T07:31:14.090Z,91.81
2024-02-26T07:33:40.991Z,92.40
2024-02-26T07:36:07.955Z,94.00
2024-02-26T07:38:42.531Z,93.71
2024-02-26T07:41:11.270Z,92.98
2024-02-26T07:43:38.143Z,92.71
2024-02-26T07:46:05.081Z,92.07
2024-02-26T07:48:32.063Z,90.42
2024-02-26T07:51:01.115Z,89.54
2024-02-26T07:53:28.009Z,88.86
2024-02-26T07:55:54.871Z,90.06
2024-02-26T07:58:21.653Z,89.24
2024-02-26T08:00:48.391Z,89.29
2024-02-26T08:03:16.867Z,89.38
2024-02-26T08:05:44.458Z,89.41
2024-02-26T08:08:11.417Z,91.18
2024-02-26T08:10:38.152Z,90.39
2024-02-26T08:13:07.774Z,90.26
2024-02-26T08:15:35.940Z,90.76
2024-02-26T08:18:06.001Z,90.71
2024-02-26T08:20:33.202Z,90.81
2024-02-26T08:23:00.178Z,90.83
2024-02-26T08:25:27.608Z,90.37
2024-02-26T08:27:54.310Z,90.62
2024-02-26T08:30:21.143Z,91.03
2024-02-26T08:32:51.603Z,91.56
2024-02-26T08:35:20.146Z,92.14
2024-02-26T08:37:48.111Z,92.01
2024-02-26T08:40:16.199Z,91.53
2024-02-26T08:42:43.562Z,90.28
2024-02-26T08:45:11.071Z,90.38
2024-02-26T08:47:38.275Z,90.37
2024-02-26T08:50:06.362Z,89.77
2024-02-26T08:52:34.408Z,89.79
2024-02-26T08:55:01.407Z,89.68
2024-02-26T08:57:29.030Z,90.12
2024-02-26T08:59:55.995Z,89.87
2024-02-26T09:02:25.598Z,89.81
2024-02-26T09:04:54.863Z,89.84
2024-02-26T09:07:23.326Z,89.38
2024-02-26T09:09:50.302Z,89.50
2024-02-26T09:12:17.120Z,88.92
2024-02-26T09:14:46.233Z,88.87
2024-02-26T09:17:13.026Z,88.38
2024-02-26T09:19:40.082Z,88.63
2024-02-26T09:22:06.959Z,88.51
2024-02-26T09:24:35.153Z,87.91
2024-02-26T09:27:02.069Z,87.39
2024-02-26T09:29:29.022Z,86.51
2024-02-26T09:31:56.370Z,85.19
2024-02-26T09:34:23.196Z,85.15
2024-02-26T09:36:49.977Z,84.25
2024-02-26T09:39:21.603Z,81.83
2024-02-26T09:41:49.957Z,81.31
2024-02-26T09:44:23.438Z,80.09
2024-02-26T09:46:53.782Z,79.22
2024-02-26T09:49:22.952Z,79.53
2024-02-26T09:51:51.234Z,78.14
2024-02-26T09:54:18.977Z,77.85
2024-02-26T09:56:59.572Z,78.28
2024-02-26T09:59:37.635Z,77.25
2024-02-26T10:02:11.848Z,77.43
2024-02-26T10:04:40.617Z,77.92
2024-02-26T10:07:13.135Z,77.82
2024-02-26T10:09:40.999Z,78.30
2024-02-26T10:12:11.158Z,77.78
2024-02-26T10:14:38.054Z,77.72
2024-02-26T10:17:09.560Z,76.27
2024-02-26T10:19:38.726Z,75.39
2024-02-26T10:22:06.709Z,75.13
2024-02-26T10:24:35.640Z,73.78
2024-02-26T10:27:04.554Z,74.27
2024-02-26T10:29:32.618Z,73.94
2024-02-26T10:31:59.366Z,75.37
2024-02-26T10:34:27.066Z,74.82
2024-02-26T10:36:55.680Z,73.89
2024-02-26T10:39:23.179Z,73.38
2024-02-26T10:41:51.168Z,72.89
2024-02-26T10:44:19.476Z,71.15
2024-02-26T10:46:50.773Z,69.76
2024-02-26T10:49:21.610Z,69.58
2024-02-26T10:51:55.682Z,69.35
2024-02-26T10:54:24.955Z,69.97
2024-02-26T10:56:52.863Z,69.84
2024-02-26T10:59:21.963Z,69.84
2024-02-26T11:01:50.400Z,70.14
2024-02-26T11:04:18.593Z,70.68
2024-02-26T11:06:50.812Z,70.07
2024-02-26T11:09:18.687Z,68.99
2024-02-26T11:11:46.209Z,69.58
2024-02-26T11:14:15.011Z,70.05
2024-02-26T11:16:43.869Z,70.82
2024-02-26T11:19:13.243Z,70.37
2024-02-26T11:21:46.605Z,69.83
2024-02-26T11:24:15.767Z,70.66
2024-02-26T11:26:49.319Z,70.22
2024-02-26T11:29:20.700Z,71.23
2024-02-26T11:31:48.160Z,70.29
2024-02-26T11:34:15.642Z,71.12
2024-02-26T11:36:43.497Z,70.72
2024-02-26T11:39:13.823Z,70.38
2024-02-26T11:41:40.716Z,70.74
2024-02-26T11:44:08.312Z,68.94
2024-02-26T11:46:43.841Z,69.35
2024-02-26T11:49:40.420Z,70.01
2024-02-26T11:52:09.554Z,68.46
2024-02-26T11:54:45.126Z,68.82
2024-02-26T11:57:34.854Z,68.60
2024-02-26T12:00:08.280Z,69.32
2024-02-26T12:02:42.213Z,67.73
2024-02-26T12:05:25.749Z,67.75
2024-02-26T12:08:00.378Z,68.31
2024-02-26T12:10:27.412Z,67.34
2024-02-26T12:13:00.895Z,67.73
2024-02-26T12:15:33.926Z,67.26
2024-02-26T12:18:06.212Z,67.69
2024-02-26T12:20:33.375Z,67.06
2024-02-26T12:23:00.482Z,66.85
2024-02-26T12:25:29.438Z,65.94
2024-02-26T12:27:56.826Z,66.57
2024-02-26T12:30:23.953Z,65.87
2024-02-26T12:32:52.328Z,64.32
2024-02-26T12:35:19.341Z,64.61
2024-02-26T12:37:47.424Z,64.28
2024-02-26T12:40:15.016Z,65.39
2024-02-26T12:42:42.385Z,66.05
2024-02-26T12:45:11.453Z,64.62
2024-02-26T12:47:39.246Z,66.45
2024-02-26T12:50:09.482Z,66.90
2024-02-26T12:52:40.253Z,65.60
2024-02-26T12:55:10.776Z,64.68
2024-02-26T12:57:44.827Z,64.96
2024-02-26T13:00:17.914Z,64.43
2024-02-26T13:02:46.276Z,65.11
2024-02-26T13:05:15.462Z,65.07
2024-02-26T13:07:48.164Z,65.93
2024-02-26T13:10:15.681Z,65.07
2024-02-26T13:12:46.603Z,65.25
2024-02-26T13:15:21.382Z,64.55
2024-02-26T13:17:49.555Z,66.36
2024-02-26T13:20:30.561Z,65.78
2024-02-26T13:23:07.918Z,64.94
2024-02-26T13:25:36.973Z,64.67
2024-02-26T13:28:11.098Z,63.61
2024-02-26T13:30:38.239Z,61.83
2024-02-26T13:33:12.937Z,63.07
2024-02-26T13:35:40.811Z,63.45
2024-02-26T13:38:07.636Z,62.96
2024-02-26T13:40:35.708Z,63.08
2024-02-26T13:43:02.525Z,63.34
2024-02-26T13:45:32.329Z,63.73
2024-02-26T13:48:12.325Z,60.98
2024-02-26T13:50:46.983Z,60.82
2024-02-26T13:53:14.627Z,61.16
2024-02-26T13:55:45.091Z,58.45
2024-02-26T13:58:14.701Z,60.44
2024-02-26T14:00:43.796Z,59.45
2024-02-26T14:03:11.531Z,59.70
2024-02-26T14:05:38.485Z,59.84
2024-02-26T14:08:05.972Z,60.73
2024-02-26T14:10:33.335Z,60.08
2024-02-26T14:13:00.778Z,59.93
2024-02-26T14:15:30.046Z,60.34
2024-02-26T14:17:58.016Z,59.13
2024-02-26T14:20:26.297Z,59.19
2024-02-26T14:22:54.431Z,60.12
2024-02-26T14:25:22.922Z,59.62
2024-02-26T14:27:49.852Z,58.94
2024-02-26T14:30:16.888Z,57.69
2024-02-26T14:32:45.018Z,58.08
2024-02-26T14:35:15.217Z,57.36
2024-02-26T14:37:49.973Z,57.02
2024-02-26T14:40:17.434Z,57.04
2024-02-26T14:42:45.600Z,58.25
2024-02-26T14:45:13.068Z,59.14
2024-02-26T14:47:41.252Z,59.01
2024-02-26T14:50:08.893Z,60.15
2024-02-26T14:52:35.830Z,60.54
2024-02-26T14:55:02.535Z,61.20
2024-02-26T14:57:30.997Z,61.24
2024-02-26T14:59:57.873Z,61.18
2024-02-26T15:02:24.858Z,59.92
2024-02-26T15:04:51.703Z,59.27
2024-02-26T15:07:21.400Z,59.67
2024-02-26T15:09:48.540Z,59.75
2024-02-26T15:12:16.563Z,60.07
2024-02-26T15:14:43.665Z,61.15
2024-02-26T15:17:11.979Z,61.53
2024-02-26T15:19:39.073Z,61.21
2024-02-26T15:22:06.405Z,61.30
2024-02-26T15:24:33.508Z,61.57
2024-02-26T15:27:00.618Z,60.88
2024-02-26T15:29:27.954Z,61.71
2024-02-26T15:31:54.919Z,61.60
2024-02-26T15:34:21.950Z,62.86
2024-02-26T15:36:49.061Z,62.80
2024-02-26T15:39:15.914Z,63.19
2024-02-26T15:41:42.697Z,63.80
2024-02-26T15:44:09.414Z,63.78
2024-02-26T15:46:41.529Z,64.51
2024-02-26T15:49:11.240Z,64.84
2024-02-26T15:51:39.787Z,64.61
2024-02-26T15:54:06.631Z,64.03
2024-02-26T15:56:33.622Z,64.23
2024-02-26T15:59:00.753Z,64.57
2024-02-26T16:01:29.800Z,64.56
2024-02-26T16:03:58.955Z,64.36
2024-02-26T16:06:44.871Z,64.32
2024-02-26T16:09:11.863Z,65.09
2024-02-26T16:11:38.877Z,66.16
2024-02-26T16:14:37.856Z,66.91
2024-02-26T16:17:35.337Z,67.35
2024-02-26T16:20:05.380Z,67.53
2024-02-26T16:22:37.191Z,67.70
2024-02-26T16:25:04.966Z,68.18
2024-02-26T16:27:31.770Z,69.18
2024-02-26T16:30:01.596Z,69.59
2024-02-26T16:32:31.447Z,69.49
2024-02-26T16:35:00.730Z,71.27
2024-02-26T16:37:28.514Z,72.62
2024-02-26T16:39:59.339Z,73.54
2024-02-26T16:42:27.239Z,74.67
2024-02-26T16:44:57.110Z,74.99
2024-02-26T16:47:24.093Z,75.77
2024-02-26T16:49:50.796Z,75.48
2024-02-26T16:52:17.507Z,75.02
2024-02-26T16:54:44.317Z,75.32
2024-02-26T16:57:11.493Z,74.98
2024-02-26T16:59:38.776Z,75.02
2024-02-26T17:02:06.060Z,73.08
2024-02-26T17:04:33.588Z,72.71
2024-02-26T17:07:01.762Z,72.94
2024-02-26T17:09:28.610Z,73.08
2024-02-26T17:11:56.027Z,72.09
2024-02-26T17:14:23.858Z,72.00
2024-02-26T17:16:51.839Z,71.96
2024-02-26T17:19:19.158Z,72.12
2024-02-26T17:21:45.858Z,72.43
2024-02-26T17:24:12.960Z,71.60
2024-02-26T17:26:39.853Z,72.16
2024-02-26T17:29:07.024Z,71.94
2024-02-26T17:31:38.358Z,71.92
2024-02-26T17:34:05.289Z,72.21
2024-02-26T17:36:32.347Z,72.52
2024-02-26T17:38:59.375Z,72.29
2024-02-26T17:41:26.410Z,73.45
2024-02-26T17:43:55.879Z,72.16
2024-02-26T17:46:22.814Z,72.61
2024-02-26T17:48:51.078Z,71.82
2024-02-26T17:51:17.927Z,72.09
2024-02-26T17:53:44.902Z,72.71
2024-02-26T17:56:11.642Z,73.16
2024-02-26T17:58:41.989Z,72.36
2024-02-26T18:01:10.219Z,72.37
2024-02-26T18:03:37.213Z,72.93
2024-02-26T18:06:05.469Z,73.04
2024-02-26T18:08:34.821Z,72.15
2024-02-26T18:11:02.974Z,71.67
2024-02-26T18:13:30.042Z,72.08
2024-02-26T18:15:58.515Z,71.45
2024-02-26T18:18:27.209Z,71.28
2024-02-26T18:20:54.710Z,71.40
2024-02-26T18:23:24.069Z,70.94
2024-02-26T18:25:50.802Z,70.65
2024-02-26T18:28:19.418Z,69.56
2024-02-26T18:30:48.006Z,69.77
2024-02-26T18:33:15.471Z,69.62
2024-02-26T18:35:42.706Z,68.29
2024-02-26T18:38:09.764Z,68.99
2024-02-26T18:40:36.866Z,69.32
2024-02-26T18:43:05.369Z,68.77
2024-02-26T18:45:32.773Z,69.38
2024-02-26T18:47:59.998Z,68.91
2024-02-26T18:50:26.997Z,69.24
2024-02-26T18:52:54.019Z,68.25
2024-02-26T18:55:20.951Z,68.47
2024-02-26T18:57:49.034Z,67.90
2024-02-26T19:00:16.909Z,68.58
2024-02-26T19:02:44.301Z,68.53
2024-02-26T19:05:12.444Z,69.23
2024-02-26T19:07:40.538Z,67.22
2024-02-26T19:10:09.445Z,67.88
2024-02-26T19:12:36.323Z,68.11
2024-02-26T19:15:03.611Z,68.37
2024-02-26T19:17:30.943Z,67.42
2024-02-26T19:20:00.881Z,67.57
2024-02-26T19:22:28.086Z,67.37
2024-02-26T19:24:55.006Z,67.20
2024-02-26T19:27:22.090Z,67.39
2024-02-26T19:29:48.909Z,67.73
2024-02-26T19:32:15.897Z,67.70
2024-02-26T19:34:46.900Z,67.76
2024-02-26T19:37:14.506Z,68.07
2024-02-26T19:39:41.387Z,69.01
2024-02-26T19:42:08.639Z,70.81
2024-02-26T19:44:35.384Z,71.09
2024-02-26T19:47:02.285Z,71.64
2024-02-26T19:49:29.695Z,72.38
2024-02-26T19:51:56.781Z,73.46
2024-02-26T19:54:23.569Z,73.85
2024-02-26T19:56:52.191Z,73.90
2024-02-26T19:59:20.228Z,73.79
2024-02-26T20:01:47.163Z,74.72
2024-02-26T20:04:15.145Z,75.52
2024-02-26T20:06:42.979Z,75.52
2024-02-26T20:09:09.868Z,75.04
2024-02-26T20:11:40.813Z,75.83
2024-02-26T20:14:12.354Z,76.93
2024-02-26T20:16:39.566Z,77.77
2024-02-26T20:19:12.703Z,77.60
2024-02-26T20:21:40.853Z,78.05
2024-02-26T20:24:08.812Z,78.54
2024-02-26T20:26:39.760Z,78.59
2024-02-26T20:29:07.284Z,78.46
2024-02-26T20:31:34.097Z,77.46
2024-02-26T20:34:02.477Z,78.28
2024-02-26T20:36:32.085Z,78.70
2024-02-26T20:38:58.785Z,77.59
2024-02-26T20:41:26.557Z,78.11
2024-02-26T20:43:53.607Z,77.66
2024-02-26T20:46:20.503Z,77.54
2024-02-26T20:48:47.688Z,78.72
2024-02-26T20:51:14.586Z,77.78
2024-02-26T20:53:42.653Z,78.56
2024-02-26T20:56:09.494Z,78.80
2024-02-26T20:58:37.116Z,77.21
2024-02-26T21:01:04.362Z,75.50
2024-02-26T21:03:31.166Z,75.80
2024-02-26T21:05:58.153Z,73.79
2024-02-26T21:08:32.812Z,71.96
2024-02-26T21:11:06.197Z,71.81
2024-02-26T21:13:34.094Z,72.12
2024-02-26T21:16:01.473Z,71.70
2024-02-26T21:18:28.654Z,71.63
2024-02-26T21:20:58.623Z,71.69
2024-02-26T21:23:26.040Z,71.21
2024-02-26T21:25:53.021Z,70.64
2024-02-26T21:28:20.022Z,71.57
2024-02-26T21:30:46.926Z,72.52
2024-02-26T21:33:14.307Z,72.14
2024-02-26T21:35:41.696Z,73.60
2024-02-26T21:38:10.277Z,73.66
2024-02-26T21:40:37.780Z,73.58
2024-02-26T21:43:04.821Z,73.40
2024-02-26T21:45:31.944Z,73.23
2024-02-26T21:47:58.924Z,73.42
2024-02-26T21:50:25.949Z,74.02
2024-02-26T21:52:52.862Z,73.80
2024-02-26T21:55:20.861Z,75.24
2024-02-26T21:57:47.569Z,74.19
2024-02-26T22:00:15.188Z,73.43
2024-02-26T22:02:42.535Z,73.66
2024-02-26T22:05:09.946Z,73.50
2024-02-26T22:07:37.374Z,73.57
2024-02-26T22:10:05.159Z,73.56
2024-02-26T22:12:31.945Z,73.03
2024-02-26T22:14:58.830Z,73.31
2024-02-26T22:17:25.708Z,72.96
2024-02-26T22:19:52.690Z,73.25
2024-02-26T22:22:20.033Z,72.53
2024-02-26T22:24:46.713Z,72.40
2024-02-26T22:27:13.490Z,71.30
2024-02-26T22:29:40.260Z,70.57
2024-02-26T22:32:07.292Z,71.11
2024-02-26T22:34:34.214Z,71.12
2024-02-26T22:37:00.999Z,71.58
2024-02-26T22:39:27.978Z,72.26
2024-02-26T22:41:55.912Z,71.92
2024-02-26T22:44:22.660Z,73.59
2024-02-26T22:46:49.437Z,73.90
2024-02-26T22:49:16.238Z,73.29
2024-02-26T22:51:43.540Z,73.14
2024-02-26T22:54:10.440Z,73.60
2024-02-26T22:56:38.861Z,72.95
2024-02-26T22:59:06.207Z,73.42
2024-02-26T23:01:33.672Z,73.85
2024-02-26T23:04:00.731Z,74.30
2024-02-26T23:06:27.736Z,74.11
2024-02-26T23:08:54.481Z,74.27
2024-02-26T23:11:21.606Z,74.45
2024-02-26T23:13:48.700Z,74.92
2024-02-26T23:16:15.791Z,74.06
2024-02-26T23:18:42.853Z,74.76
2024-02-26T23:21:09.656Z,74.07
2024-02-26T23:23:36.729Z,74.76
2024-02-26T23:26:04.693Z,74.70
2024-02-26T23:28:31.697Z,74.53
2024-02-26T23:30:58.498Z,74.63
2024-02-26T23:33:25.532Z,74.33
2024-02-26T23:35:52.738Z,73.99
2024-02-26T23:38:19.702Z,73.45
2024-02-26T23:40:46.366Z,72.45
2024-02-26T23:43:13.151Z,73.66
2024-02-26T23:45:40.258Z,73.15
2024-02-26T23:48:07.693Z,72.38
2024-02-26T23:50:35.859Z,73.11
2024-02-26T23:53:05.086Z,72.72
2024-02-26T23:55:33.306Z,73.40
2024-02-26T23:58:00.322Z,73.69
